createdAt,value
2022-10-13T00:00:34.403Z,61.55
2022-10-13T00:03:41.991Z,61.48
2022-10-13T00:06:48.096Z,61.92
2022-10-13T00:09:54.319Z,62.38
2022-10-13T00:13:00.387Z,61.94
2022-10-13T00:16:07.103Z,61.57
2022-10-13T00:19:15.156Z,61.26
2022-10-13T00:22:21.703Z,61.27
2022-10-13T00:25:26.313Z,61.37
2022-10-13T00:28:33.219Z,61.60
2022-10-13T00:31:39.353Z,61.46
2022-10-13T00:34:45.491Z,61.56
2022-10-13T00:37:53.635Z,61.93
2022-10-13T00:40:59.708Z,61.78
2022-10-13T00:44:07.322Z,61.79
2022-10-13T00:47:13.559Z,61.82
2022-10-13T00:50:23.203Z,61.63
2022-10-13T00:53:33.363Z,61.88
2022-10-13T00:56:43.070Z,62.37
2022-10-13T00:59:49.699Z,61.87
2022-10-13T01:02:56.023Z,61.58
2022-10-13T01:06:01.718Z,61.47
2022-10-13T01:09:07.825Z,61.46
2022-10-13T01:12:25.518Z,62.08
2022-10-13T01:15:37.937Z,62.98
2022-10-13T01:18:51.959Z,63.14
2022-10-13T01:22:10.648Z,62.66
2022-10-13T01:25:32.650Z,62.56
2022-10-13T01:28:52.970Z,62.50
2022-10-13T01:32:08.016Z,62.26
2022-10-13T01:35:20.223Z,62.30
2022-10-13T01:38:36.729Z,62.03
2022-10-13T01:41:47.805Z,62.05
2022-10-13T01:44:58.304Z,62.08
2022-10-13T01:48:06.662Z,61.96
2022-10-13T01:51:17.679Z,62.06
2022-10-13T01:54:23.811Z,62.22
2022-10-13T01:57:39.658Z,62.08
2022-10-13T02:00:53.885Z,62.39
2022-10-13T02:04:11.912Z,62.45
2022-10-13T02:07:24.731Z,62.78
2022-10-13T02:10:37.846Z,62.85
2022-10-13T02:13:54.334Z,62.91
2022-10-13T02:17:04.693Z,63.05
2022-10-13T02:20:12.938Z,63.11
2022-10-13T02:23:20.382Z,63.32
2022-10-13T02:26:27.109Z,63.23
2022-10-13T02:29:33.737Z,63.70
2022-10-13T02:32:39.848Z,63.49
2022-10-13T02:35:46.312Z,63.29
2022-10-13T02:38:52.537Z,63.10
2022-10-13T02:41:58.639Z,63.07
2022-10-13T02:45:05.340Z,63.35
2022-10-13T02:48:11.689Z,63.61
2022-10-13T02:51:16.236Z,63.48
2022-10-13T02:54:22.431Z,63.57
2022-10-13T02:57:28.615Z,63.18
2022-10-13T03:00:34.899Z,63.30
2022-10-13T03:03:41.127Z,63.54
2022-10-13T03:06:47.207Z,63.23
2022-10-13T03:09:53.276Z,63.05
2022-10-13T03:12:59.894Z,62.80
2022-10-13T03:16:06.544Z,62.66
2022-10-13T03:19:12.818Z,62.64
2022-10-13T03:22:19.351Z,62.62
2022-10-13T03:25:25.653Z,62.53
2022-10-13T03:28:32.188Z,62.41
2022-10-13T03:31:38.259Z,62.54
2022-10-13T03:34:44.345Z,62.65
2022-10-13T03:37:50.566Z,62.96
2022-10-13T03:40:56.883Z,63.07
2022-10-13T03:44:01.904Z,63.14
2022-10-13T03:47:08.048Z,63.12
2022-10-13T03:50:14.542Z,62.86
2022-10-13T03:53:20.733Z,63.00
2022-10-13T03:56:28.377Z,62.83
2022-10-13T03:59:37.000Z,62.78
2022-10-13T04:02:43.521Z,63.37
2022-10-13T04:05:48.488Z,63.70
2022-10-13T04:08:55.224Z,64.06
2022-10-13T04:12:01.538Z,63.83
2022-10-13T04:15:06.525Z,63.78
2022-10-13T04:18:14.328Z,63.67
2022-10-13T04:21:20.536Z,63.06
2022-10-13T04:24:26.657Z,62.80
2022-10-13T04:27:33.690Z,62.65
2022-10-13T04:30:39.888Z,62.65
2022-10-13T04:33:46.316Z,62.53
2022-10-13T04:36:54.306Z,62.72
2022-10-13T04:40:00.409Z,62.89
2022-10-13T04:43:06.477Z,62.83
2022-10-13T04:46:15.421Z,62.87
2022-10-13T04:49:21.555Z,63.01
2022-10-13T04:52:27.728Z,62.96
2022-10-13T04:55:36.298Z,63.04
2022-10-13T04:58:44.083Z,63.13
2022-10-13T05:01:50.350Z,63.22
2022-10-13T05:04:56.513Z,63.45
2022-10-13T05:08:02.653Z,63.49
2022-10-13T05:11:08.871Z,63.25
2022-10-13T05:14:15.251Z,63.72
2022-10-13T05:17:21.347Z,63.76
2022-10-13T05:20:27.626Z,63.82
2022-10-13T05:23:33.774Z,63.40
2022-10-13T05:26:40.323Z,63.39
2022-10-13T05:29:46.419Z,63.43
2022-10-13T05:32:54.010Z,63.56
2022-10-13T05:36:06.863Z,63.72
2022-10-13T05:39:13.241Z,63.99
2022-10-13T05:42:18.086Z,64.07
2022-10-13T05:45:25.755Z,64.32
2022-10-13T05:48:32.399Z,64.13
2022-10-13T05:51:41.476Z,64.32
2022-10-13T05:54:52.142Z,64.66
2022-10-13T05:57:58.370Z,64.68
2022-10-13T06:01:07.149Z,64.38
2022-10-13T06:04:18.411Z,64.44
2022-10-13T06:07:25.135Z,64.72
2022-10-13T06:10:32.104Z,64.86
2022-10-13T06:13:38.292Z,64.65
2022-10-13T06:16:44.476Z,64.73
2022-10-13T06:19:50.413Z,64.84
2022-10-13T06:22:57.535Z,64.81
2022-10-13T06:26:03.582Z,64.94
2022-10-13T06:29:10.118Z,65.35
2022-10-13T06:32:16.487Z,65.68
2022-10-13T06:35:22.506Z,65.72
2022-10-13T06:38:28.955Z,65.85
2022-10-13T06:41:34.988Z,65.69
2022-10-13T06:44:41.165Z,65.74
2022-10-13T06:47:47.351Z,65.85
2022-10-13T06:50:53.625Z,66.01
2022-10-13T06:53:58.558Z,66.02
2022-10-13T06:57:06.593Z,66.42
2022-10-13T07:00:14.336Z,66.99
2022-10-13T07:03:20.389Z,67.64
2022-10-13T07:06:26.593Z,68.19
2022-10-13T07:09:34.116Z,68.53
2022-10-13T07:12:40.229Z,68.91
2022-10-13T07:15:46.407Z,69.28
2022-10-13T07:18:52.559Z,69.74
2022-10-13T07:21:59.247Z,70.08
2022-10-13T07:25:05.846Z,70.78
2022-10-13T07:28:12.041Z,71.33
2022-10-13T07:31:20.873Z,71.84
2022-10-13T07:34:26.983Z,72.36
2022-10-13T07:37:33.201Z,72.65
2022-10-13T07:40:39.745Z,72.75
2022-10-13T07:43:46.164Z,72.85
2022-10-13T07:46:50.714Z,73.00
2022-10-13T07:49:56.919Z,73.28
2022-10-13T07:53:03.011Z,73.15
2022-10-13T07:56:13.751Z,73.33
2022-10-13T07:59:20.404Z,73.45
2022-10-13T08:02:26.557Z,73.52
2022-10-13T08:05:32.722Z,73.65
2022-10-13T08:08:40.264Z,73.64
2022-10-13T08:11:46.379Z,73.12
2022-10-13T08:14:54.579Z,72.91
2022-10-13T08:18:00.828Z,72.29
2022-10-13T08:24:34.019Z,71.93
2022-10-13T08:27:50.663Z,72.10
2022-10-13T08:30:58.310Z,71.91
2022-10-13T08:34:04.659Z,72.16
2022-10-13T08:37:16.305Z,72.41
2022-10-13T08:40:24.297Z,72.45
2022-10-13T08:43:31.222Z,72.32
2022-10-13T08:46:48.344Z,72.33
2022-10-13T08:49:59.799Z,72.26
2022-10-13T08:53:12.572Z,71.21
2022-10-13T08:56:23.459Z,70.84
2022-10-13T08:59:29.961Z,70.21
2022-10-13T09:02:35.956Z,69.81
2022-10-13T09:05:50.032Z,69.60
2022-10-13T09:08:58.920Z,69.45
2022-10-13T09:12:06.050Z,69.31
2022-10-13T09:15:14.496Z,68.94
2022-10-13T09:18:28.789Z,68.36
2022-10-13T09:21:34.966Z,67.93
2022-10-13T09:24:41.247Z,67.82
2022-10-13T09:27:46.463Z,67.41
2022-10-13T09:31:04.410Z,67.20
2022-10-13T09:34:23.980Z,66.48
2022-10-13T09:37:30.143Z,66.01
2022-10-13T09:40:37.225Z,65.93
2022-10-13T09:43:58.751Z,65.40
2022-10-13T09:47:06.787Z,65.58
2022-10-13T09:50:21.422Z,64.90
2022-10-13T09:53:31.310Z,63.30
2022-10-13T09:56:43.692Z,62.97
2022-10-13T09:59:52.309Z,63.12
2022-10-13T10:03:03.586Z,62.24
2022-10-13T10:06:13.818Z,60.73
2022-10-13T10:09:38.030Z,59.90
2022-10-13T10:12:45.320Z,59.35
2022-10-13T10:15:57.870Z,60.71
2022-10-13T10:19:08.717Z,61.91
2022-10-13T10:22:23.100Z,60.91
2022-10-13T10:25:35.576Z,60.20
2022-10-13T10:28:56.885Z,59.16
2022-10-13T10:32:21.659Z,58.13
2022-10-13T10:35:42.911Z,58.90
2022-10-13T10:38:52.793Z,58.28
2022-10-13T10:42:07.427Z,60.62
2022-10-13T10:45:19.880Z,59.51
2022-10-13T10:48:30.135Z,60.36
2022-10-13T10:51:39.397Z,59.14
2022-10-13T10:54:53.630Z,57.26
2022-10-13T10:58:08.451Z,57.58
2022-10-13T11:01:28.649Z,59.17
2022-10-13T11:04:45.056Z,58.71
2022-10-13T11:08:01.616Z,59.17
2022-10-13T11:11:47.552Z,59.44
2022-10-13T11:15:10.206Z,57.87
2022-10-13T11:18:51.079Z,57.74
2022-10-13T11:22:27.481Z,58.18
2022-10-13T11:25:41.750Z,57.09
2022-10-13T11:28:51.168Z,56.52
2022-10-13T11:31:57.722Z,58.24
2022-10-13T11:35:19.679Z,57.07
2022-10-13T11:38:36.488Z,57.32
2022-10-13T11:41:52.679Z,56.31
2022-10-13T11:45:01.026Z,57.44
2022-10-13T11:48:31.823Z,57.89
2022-10-13T11:51:50.294Z,56.44
2022-10-13T11:55:02.815Z,57.00
2022-10-13T11:58:19.598Z,57.45
2022-10-13T12:01:25.747Z,55.93
2022-10-13T12:04:32.009Z,55.65
2022-10-13T12:07:42.186Z,56.86
2022-10-13T12:10:55.071Z,56.19
2022-10-13T12:14:02.328Z,56.02
2022-10-13T12:17:24.245Z,56.35
2022-10-13T12:20:35.308Z,55.57
2022-10-13T12:23:42.202Z,55.72
2022-10-13T12:26:48.442Z,56.67
2022-10-13T12:29:54.620Z,56.12
2022-10-13T12:33:02.013Z,55.65
2022-10-13T12:36:20.575Z,55.32
2022-10-13T12:39:27.903Z,54.76
2022-10-13T12:42:37.302Z,55.19
2022-10-13T12:45:44.507Z,54.02
2022-10-13T12:48:51.380Z,53.72
2022-10-13T12:52:05.325Z,53.54
2022-10-13T12:55:20.602Z,54.27
2022-10-13T12:58:30.794Z,53.44
2022-10-13T13:01:38.078Z,53.64
2022-10-13T13:04:45.739Z,54.38
2022-10-13T13:07:56.495Z,53.49
2022-10-13T13:11:04.000Z,54.61
2022-10-13T13:14:38.747Z,54.15
2022-10-13T13:17:57.902Z,54.88
2022-10-13T13:21:05.824Z,54.98
2022-10-13T13:24:28.268Z,54.63
2022-10-13T13:27:41.093Z,54.60
2022-10-13T13:30:47.179Z,55.13
2022-10-13T13:33:53.621Z,54.41
2022-10-13T13:37:02.700Z,53.80
2022-10-13T13:40:15.972Z,54.55
2022-10-13T13:43:22.271Z,54.43
2022-10-13T13:46:32.605Z,54.34
2022-10-13T13:49:39.215Z,53.70
2022-10-13T13:52:43.803Z,54.76
2022-10-13T13:55:50.579Z,55.55
2022-10-13T13:58:57.135Z,54.63
2022-10-13T14:02:03.601Z,54.79
2022-10-13T14:05:11.219Z,54.47
2022-10-13T14:08:17.352Z,55.16
2022-10-13T14:11:23.355Z,55.02
2022-10-13T14:14:28.029Z,54.54
2022-10-13T14:17:34.234Z,54.93
2022-10-13T14:20:43.882Z,55.31
2022-10-13T14:23:50.133Z,55.81
2022-10-13T14:26:56.351Z,55.21
2022-10-13T14:30:02.696Z,55.06
2022-10-13T14:33:09.185Z,55.59
2022-10-13T14:36:15.274Z,56.16
2022-10-13T14:39:19.872Z,56.05
2022-10-13T14:42:26.303Z,56.19
2022-10-13T14:45:32.369Z,56.03
2022-10-13T14:48:37.848Z,55.46
2022-10-13T14:51:44.201Z,55.48
2022-10-13T14:54:50.389Z,56.24
2022-10-13T14:57:56.482Z,56.82
2022-10-13T15:01:01.044Z,57.09
2022-10-13T15:04:07.825Z,57.04
2022-10-13T15:07:14.051Z,58.00
2022-10-13T15:10:20.460Z,58.33
2022-10-13T15:13:26.725Z,58.92
2022-10-13T15:16:34.391Z,59.37
2022-10-13T15:19:40.472Z,59.85
2022-10-13T15:22:45.011Z,60.89
2022-10-13T15:25:56.385Z,60.85
2022-10-13T15:29:02.637Z,62.00
2022-10-13T15:32:13.791Z,63.81
2022-10-13T15:35:19.801Z,65.03
2022-10-13T15:38:26.479Z,64.09
2022-10-13T15:41:32.511Z,63.67
2022-10-13T15:48:03.176Z,62.66
2022-10-13T15:51:10.630Z,61.97
2022-10-13T15:54:17.808Z,61.64
2022-10-13T15:57:23.947Z,60.04
2022-10-13T16:00:28.735Z,61.03
2022-10-13T16:03:34.989Z,61.48
2022-10-13T16:06:39.484Z,64.01
2022-10-13T16:09:45.603Z,64.76
2022-10-13T16:12:50.074Z,63.82
2022-10-13T16:16:03.184Z,63.39
2022-10-13T16:19:09.330Z,62.62
2022-10-13T16:22:13.799Z,62.06
2022-10-13T16:25:20.067Z,61.89
2022-10-13T16:28:26.266Z,61.25
2022-10-13T16:31:32.463Z,60.97
2022-10-13T16:34:37.900Z,60.78
2022-10-13T16:37:44.069Z,60.75
2022-10-13T16:40:48.521Z,60.48
2022-10-13T16:43:54.624Z,60.57
2022-10-13T16:47:00.825Z,59.67
2022-10-13T16:50:09.891Z,60.08
2022-10-13T16:53:16.305Z,61.40
2022-10-13T16:56:24.138Z,63.63
2022-10-13T16:59:30.705Z,64.76
2022-10-13T17:02:37.485Z,63.84
2022-10-13T17:05:43.613Z,63.14
2022-10-13T17:08:49.776Z,62.65
2022-10-13T17:11:55.852Z,61.95
2022-10-13T17:15:01.976Z,61.78
2022-10-13T17:18:06.843Z,61.59
2022-10-13T17:21:16.311Z,61.70
2022-10-13T17:24:22.870Z,61.79
2022-10-13T17:27:30.076Z,61.44
2022-10-13T17:30:36.283Z,61.16
2022-10-13T17:33:41.396Z,61.14
2022-10-13T17:36:50.774Z,61.39
2022-10-13T17:39:56.980Z,61.43
2022-10-13T17:43:02.388Z,61.29
2022-10-13T17:46:36.288Z,61.13
2022-10-13T17:49:40.105Z,60.81
2022-10-13T17:52:46.808Z,60.93
2022-10-13T17:55:54.895Z,60.94
2022-10-13T17:59:02.531Z,60.76
2022-10-13T18:02:08.750Z,60.61
2022-10-13T18:05:13.327Z,60.85
2022-10-13T18:08:20.075Z,61.47
2022-10-13T18:11:26.716Z,61.16
2022-10-13T18:14:32.820Z,61.02
2022-10-13T18:17:38.855Z,60.80
2022-10-13T18:20:44.927Z,60.59
2022-10-13T18:23:51.196Z,60.75
2022-10-13T18:26:55.661Z,60.73
2022-10-13T18:30:01.793Z,60.88
2022-10-13T18:33:08.029Z,60.85
2022-10-13T18:36:19.977Z,61.01
2022-10-13T18:39:28.560Z,61.16
2022-10-13T18:42:34.681Z,61.24
2022-10-13T18:45:40.815Z,61.32
2022-10-13T18:48:46.794Z,61.21
2022-10-13T18:51:54.014Z,61.00
2022-10-13T18:55:00.199Z,61.10
2022-10-13T18:58:04.764Z,61.36
2022-10-13T19:01:13.364Z,61.42
2022-10-13T19:04:21.700Z,61.42
2022-10-13T19:07:27.756Z,61.48
2022-10-13T19:10:33.786Z,61.69
2022-10-13T19:13:40.342Z,61.70
2022-10-13T19:16:47.052Z,62.07
2022-10-13T19:19:53.259Z,62.53
2022-10-13T19:22:57.815Z,61.92
2022-10-13T19:26:14.021Z,61.79
2022-10-13T19:29:21.031Z,61.29
2022-10-13T19:32:27.221Z,61.22
2022-10-13T19:35:33.342Z,61.28
2022-10-13T19:38:40.407Z,61.47
2022-10-13T19:41:47.955Z,61.47
2022-10-13T19:44:54.129Z,61.43
2022-10-13T19:47:58.650Z,61.44
2022-10-13T19:51:05.911Z,61.58
2022-10-13T19:54:12.330Z,61.46
2022-10-13T19:57:19.834Z,61.31
2022-10-13T20:00:26.233Z,61.48
2022-10-13T20:03:30.804Z,61.96
2022-10-13T20:06:37.790Z,62.37
2022-10-13T20:09:43.906Z,61.67
2022-10-13T20:12:50.075Z,61.41
2022-10-13T20:15:56.132Z,61.36
2022-10-13T20:19:03.310Z,61.29
2022-10-13T20:22:09.519Z,61.35
2022-10-13T20:25:19.781Z,61.35
2022-10-13T20:28:26.056Z,61.27
2022-10-13T20:31:30.779Z,61.33
2022-10-13T20:34:37.002Z,62.08
2022-10-13T20:37:41.474Z,61.60
2022-10-13T20:40:47.600Z,61.42
2022-10-13T20:43:54.772Z,61.23
2022-10-13T20:47:01.047Z,61.31
2022-10-13T20:50:08.568Z,61.19
2022-10-13T20:53:14.542Z,61.69
2022-10-13T20:56:22.858Z,61.53
2022-10-13T20:59:29.200Z,61.48
2022-10-13T21:02:33.913Z,61.39
2022-10-13T21:05:40.128Z,61.44
2022-10-13T21:08:49.250Z,61.37
2022-10-13T21:11:55.479Z,61.34
2022-10-13T21:15:01.553Z,61.38
2022-10-13T21:18:08.833Z,61.90
2022-10-13T21:21:15.235Z,62.03
2022-10-13T21:24:19.861Z,61.92
2022-10-13T21:27:26.116Z,62.01
2022-10-13T21:30:33.016Z,61.70
2022-10-13T21:33:40.913Z,61.61
2022-10-13T21:36:47.087Z,61.53
2022-10-13T21:39:53.510Z,61.58
2022-10-13T21:42:59.508Z,61.92
2022-10-13T21:46:13.351Z,62.43
2022-10-13T21:49:19.515Z,62.84
2022-10-13T21:52:26.256Z,63.04
2022-10-13T21:55:33.124Z,63.36
2022-10-13T21:58:39.954Z,64.14
2022-10-13T22:01:46.321Z,64.56
2022-10-13T22:04:51.357Z,63.97
2022-10-13T22:07:56.958Z,63.30
2022-10-13T22:11:02.468Z,62.91
2022-10-13T22:14:08.719Z,62.59
2022-10-13T22:17:13.149Z,62.37
2022-10-13T22:20:18.900Z,62.33
2022-10-13T22:23:24.249Z,62.29
2022-10-13T22:26:31.349Z,62.20
2022-10-13T22:29:36.728Z,62.17
2022-10-13T22:32:42.066Z,62.15
2022-10-13T22:35:47.569Z,62.13
2022-10-13T22:38:54.964Z,62.11
2022-10-13T22:42:00.408Z,62.17
2022-10-13T22:45:07.326Z,62.36
2022-10-13T22:48:14.289Z,62.48
2022-10-13T22:51:22.683Z,62.54
2022-10-13T22:54:28.122Z,62.84
2022-10-13T22:57:33.686Z,62.93
2022-10-13T23:00:39.885Z,63.40
2022-10-13T23:03:47.650Z,63.44
2022-10-13T23:06:53.070Z,63.41
2022-10-13T23:09:58.545Z,63.47
2022-10-13T23:13:04.262Z,63.46
2022-10-13T23:16:12.559Z,63.66
2022-10-13T23:19:19.638Z,63.91
2022-10-13T23:22:25.033Z,63.81
2022-10-13T23:25:30.490Z,63.59
2022-10-13T23:28:36.964Z,63.52
2022-10-13T23:31:42.830Z,63.41
2022-10-13T23:34:48.368Z,63.48
2022-10-13T23:37:55.920Z,63.59
2022-10-13T23:41:07.679Z,63.64
2022-10-13T23:44:13.777Z,63.86
2022-10-13T23:47:20.184Z,64.17
2022-10-13T23:50:26.675Z,65.26
2022-10-13T23:53:37.333Z,65.47
2022-10-13T23:56:43.514Z,65.34
2022-10-13T23:59:49.739Z,65.56
